Bostwick, Florida
Current Conditions -  °F | °C
As of 5:15 PM on Saturday 20 Dec 2014 (Local Time) from K28J Reporting Station
Broken Clouds Broken Clouds  
Wind Chill: 66°   Ceiling: 4600
Heat Index: 66°   Visibility: 10mi
Dew Point: 59°   Wind: 8mph
Humidity: 78%   Direction: 60°ENE
Pressure: 30.09"   Gusts: NA
Location:  29.77°N, 81.64°W
Report Text: K28J 202215Z AUTO 06007KT 10SM SCT038 BKN046 19/15 A3009 RMK AO2
Loading
Personal Weather Stations






























Interactive Weather Map New forecast layout! Learn more

10-Day Weather Forecast

Advertisements
Track Severe Weather on mobile